sensor_id;sensor_type;location;lat;lon;timestamp;pressure;altitude;pressure_sealevel;temperature;humidity
13732;BME280;6937;56.096;12.664;2023-08-06T00:00:49;100121.41;;;15.92;100.00
13732;BME280;6937;56.096;12.664;2023-08-06T00:03:14;100107.59;;;15.95;100.00
13732;BME280;6937;56.096;12.664;2023-08-06T00:05:43;100082.34;;;16.05;100.00
13732;BME280;6937;56.096;12.664;2023-08-06T00:08:08;100077.66;;;16.07;100.00
13732;BME280;6937;56.096;12.664;2023-08-06T00:10:34;100072.13;;;16.08;100.00
13732;BME280;6937;56.096;12.664;2023-08-06T00:12:59;100084.38;;;16.03;100.00
13732;BME280;6937;56.096;12.664;2023-08-06T00:15:24;100064.44;;;15.87;100.00
13732;BME280;6937;56.096;12.664;2023-08-06T00:17:50;100059.19;;;15.86;100.00
13732;BME280;6937;56.096;12.664;2023-08-06T00:20:16;100045.72;;;15.86;100.00
13732;BME280;6937;56.096;12.664;2023-08-06T00:22:41;100044.91;;;15.85;100.00
13732;BME280;6937;56.096;12.664;2023-08-06T00:25:07;100035.78;;;15.86;100.00
13732;BME280;6937;56.096;12.664;2023-08-06T00:27:32;100028.41;;;15.88;100.00
13732;BME280;6937;56.096;12.664;2023-08-06T00:29:58;100023.88;;;15.89;100.00
13732;BME280;6937;56.096;12.664;2023-08-06T00:32:23;100017.31;;;15.91;100.00
13732;BME280;6937;56.096;12.664;2023-08-06T00:34:49;100014.59;;;15.91;100.00
13732;BME280;6937;56.096;12.664;2023-08-06T00:37:18;100011.75;;;15.93;100.00
13732;BME280;6937;56.096;12.664;2023-08-06T00:39:44;100000.28;;;15.91;100.00
13732;BME280;6937;56.096;12.664;2023-08-06T00:42:10;100006.00;;;15.88;100.00
13732;BME280;6937;56.096;12.664;2023-08-06T00:44:36;100005.00;;;15.89;100.00
13732;BME280;6937;56.096;12.664;2023-08-06T00:47:02;99990.69;;;15.88;100.00
13732;BME280;6937;56.096;12.664;2023-08-06T00:49:27;99984.78;;;15.85;100.00
13732;BME280;6937;56.096;12.664;2023-08-06T00:51:53;99978.03;;;15.81;100.00
13732;BME280;6937;56.096;12.664;2023-08-06T00:54:18;99981.34;;;15.75;100.00
13732;BME280;6937;56.096;12.664;2023-08-06T00:56:45;99983.34;;;15.65;100.00
13732;BME280;6937;56.096;12.664;2023-08-06T00:59:11;99979.94;;;15.55;100.00
13732;BME280;6937;56.096;12.664;2023-08-06T01:01:37;99975.56;;;15.54;100.00
13732;BME280;6937;56.096;12.664;2023-08-06T01:04:03;99966.31;;;15.56;100.00
13732;BME280;6937;56.096;12.664;2023-08-06T01:11:57;99951.00;;;15.57;100.00
13732;BME280;6937;56.096;12.664;2023-08-06T01:14:41;99957.06;;;15.59;100.00
13732;BME280;6937;56.096;12.664;2023-08-06T01:17:12;99952.69;;;15.58;100.00
13732;BME280;6937;56.096;12.664;2023-08-06T01:19:37;99962.47;;;15.59;100.00
13732;BME280;6937;56.096;12.664;2023-08-06T01:22:03;99951.69;;;15.59;100.00
13732;BME280;6937;56.096;12.664;2023-08-06T01:24:29;99955.38;;;15.58;100.00
13732;BME280;6937;56.096;12.664;2023-08-06T01:29:39;99910.59;;;15.57;100.00
13732;BME280;6937;56.096;12.664;2023-08-06T01:32:08;99908.72;;;15.49;100.00
13732;BME280;6937;56.096;12.664;2023-08-06T01:34:37;99911.69;;;15.46;100.00
13732;BME280;6937;56.096;12.664;2023-08-06T01:37:04;99910.00;;;15.45;100.00
13732;BME280;6937;56.096;12.664;2023-08-06T01:39:33;99890.56;;;15.51;100.00
13732;BME280;6937;56.096;12.664;2023-08-06T01:41:58;99883.31;;;15.52;100.00
13732;BME280;6937;56.096;12.664;2023-08-06T01:44:23;99889.16;;;15.47;100.00
13732;BME280;6937;56.096;12.664;2023-08-06T01:46:49;99886.88;;;15.52;100.00
13732;BME280;6937;56.096;12.664;2023-08-06T01:49:14;99878.09;;;15.50;100.00
13732;BME280;6937;56.096;12.664;2023-08-06T01:51:39;99866.09;;;15.44;100.00
13732;BME280;6937;56.096;12.664;2023-08-06T01:54:05;99867.16;;;15.52;100.00
13732;BME280;6937;56.096;12.664;2023-08-06T01:56:30;99863.06;;;15.39;100.00
13732;BME280;6937;56.096;12.664;2023-08-06T01:58:55;99859.16;;;15.26;100.00
13732;BME280;6937;56.096;12.664;2023-08-06T02:01:21;99846.50;;;15.18;100.00
13732;BME280;6937;56.096;12.664;2023-08-06T02:03:46;99839.44;;;15.17;100.00
13732;BME280;6937;56.096;12.664;2023-08-06T02:06:11;99834.19;;;15.16;100.00
13732;BME280;6937;56.096;12.664;2023-08-06T02:08:37;99833.19;;;15.17;100.00
13732;BME280;6937;56.096;12.664;2023-08-06T02:11:02;99818.75;;;15.18;100.00
13732;BME280;6937;56.096;12.664;2023-08-06T02:13:28;99814.47;;;15.07;100.00
13732;BME280;6937;56.096;12.664;2023-08-06T02:15:53;99821.88;;;15.05;100.00
13732;BME280;6937;56.096;12.664;2023-08-06T02:18:18;99824.41;;;15.07;100.00
13732;BME280;6937;56.096;12.664;2023-08-06T02:20:54;99824.25;;;15.08;100.00
13732;BME280;6937;56.096;12.664;2023-08-06T02:23:20;99828.78;;;15.08;100.00
13732;BME280;6937;56.096;12.664;2023-08-06T02:25:46;99838.41;;;15.10;100.00
13732;BME280;6937;56.096;12.664;2023-08-06T02:28:11;99830.47;;;15.09;100.00
13732;BME280;6937;56.096;12.664;2023-08-06T02:30:36;99828.78;;;15.08;100.00
13732;BME280;6937;56.096;12.664;2023-08-06T02:33:02;99830.94;;;15.04;100.00
13732;BME280;6937;56.096;12.664;2023-08-06T02:35:27;99827.41;;;14.95;100.00
13732;BME280;6937;56.096;12.664;2023-08-06T02:37:52;99832.41;;;14.90;100.00
13732;BME280;6937;56.096;12.664;2023-08-06T02:40:18;99834.22;;;14.82;100.00
13732;BME280;6937;56.096;12.664;2023-08-06T02:42:43;99828.63;;;14.75;100.00
13732;BME280;6937;56.096;12.664;2023-08-06T02:45:08;99824.22;;;14.66;100.00
13732;BME280;6937;56.096;12.664;2023-08-06T02:47:34;99811.94;;;14.64;100.00
13732;BME280;6937;56.096;12.664;2023-08-06T02:49:59;99808.59;;;14.70;100.00
13732;BME280;6937;56.096;12.664;2023-08-06T02:52:24;99804.91;;;14.71;100.00
13732;BME280;6937;56.096;12.664;2023-08-06T02:54:50;99792.47;;;14.70;100.00
13732;BME280;6937;56.096;12.664;2023-08-06T02:57:15;99791.28;;;14.64;100.00
13732;BME280;6937;56.096;12.664;2023-08-06T02:59:40;99768.88;;;14.56;100.00
13732;BME280;6937;56.096;12.664;2023-08-06T03:02:06;99767.03;;;14.56;100.00
13732;BME280;6937;56.096;12.664;2023-08-06T03:04:31;99738.25;;;14.48;100.00
13732;BME280;6937;56.096;12.664;2023-08-06T03:06:56;99726.31;;;14.43;100.00
13732;BME280;6937;56.096;12.664;2023-08-06T03:09:22;99731.84;;;14.41;100.00
13732;BME280;6937;56.096;12.664;2023-08-06T03:11:47;99719.56;;;14.39;100.00
13732;BME280;6937;56.096;12.664;2023-08-06T03:14:13;99698.34;;;14.36;100.00
13732;BME280;6937;56.096;12.664;2023-08-06T03:16:38;99686.63;;;14.37;100.00
13732;BME280;6937;56.096;12.664;2023-08-06T03:19:03;99669.28;;;14.31;100.00
13732;BME280;6937;56.096;12.664;2023-08-06T03:21:29;99654.13;;;14.30;100.00
13732;BME280;6937;56.096;12.664;2023-08-06T03:23:54;99639.66;;;14.23;100.00
13732;BME280;6937;56.096;12.664;2023-08-06T03:26:19;99626.91;;;14.25;100.00
13732;BME280;6937;56.096;12.664;2023-08-06T03:28:45;99612.66;;;14.33;100.00
13732;BME280;6937;56.096;12.664;2023-08-06T03:31:10;99607.28;;;14.33;100.00
13732;BME280;6937;56.096;12.664;2023-08-06T03:33:35;99590.16;;;14.34;100.00
13732;BME280;6937;56.096;12.664;2023-08-06T03:36:01;99564.28;;;14.33;100.00
13732;BME280;6937;56.096;12.664;2023-08-06T03:38:26;99545.97;;;14.28;100.00
13732;BME280;6937;56.096;12.664;2023-08-06T03:40:52;99528.50;;;14.24;100.00
13732;BME280;6937;56.096;12.664;2023-08-06T03:43:18;99524.97;;;14.24;100.00
13732;BME280;6937;56.096;12.664;2023-08-06T03:45:43;99500.94;;;14.22;100.00
13732;BME280;6937;56.096;12.664;2023-08-06T03:48:09;99497.91;;;14.25;100.00
13732;BME280;6937;56.096;12.664;2023-08-06T03:50:35;99474.06;;;14.22;100.00
13732;BME280;6937;56.096;12.664;2023-08-06T03:53:01;99451.56;;;14.23;100.00
13732;BME280;6937;56.096;12.664;2023-08-06T03:55:26;99436.59;;;14.29;100.00
13732;BME280;6937;56.096;12.664;2023-08-06T03:57:52;99411.25;;;14.31;100.00
13732;BME280;6937;56.096;12.664;2023-08-06T04:00:17;99391.75;;;14.29;100.00
13732;BME280;6937;56.096;12.664;2023-08-06T04:02:43;99375.28;;;14.32;100.00
13732;BME280;6937;56.096;12.664;2023-08-06T04:05:08;99352.28;;;14.30;100.00
13732;BME280;6937;56.096;12.664;2023-08-06T04:07:34;99329.44;;;14.34;100.00
13732;BME280;6937;56.096;12.664;2023-08-06T04:10:01;99318.69;;;14.34;100.00
13732;BME280;6937;56.096;12.664;2023-08-06T04:12:27;99299.41;;;14.38;100.00
13732;BME280;6937;56.096;12.664;2023-08-06T04:14:53;99283.91;;;14.32;100.00
13732;BME280;6937;56.096;12.664;2023-08-06T04:17:19;99263.59;;;14.30;100.00
13732;BME280;6937;56.096;12.664;2023-08-06T04:19:51;99245.81;;;14.29;100.00
13732;BME280;6937;56.096;12.664;2023-08-06T04:22:17;99216.44;;;14.27;100.00
13732;BME280;6937;56.096;12.664;2023-08-06T04:24:43;99201.81;;;14.30;100.00
13732;BME280;6937;56.096;12.664;2023-08-06T04:27:09;99185.84;;;14.36;100.00
13732;BME280;6937;56.096;12.664;2023-08-06T04:29:36;99153.59;;;14.36;100.00
13732;BME280;6937;56.096;12.664;2023-08-06T04:32:01;99148.91;;;14.38;100.00
13732;BME280;6937;56.096;12.664;2023-08-06T04:34:27;99142.81;;;14.44;100.00
13732;BME280;6937;56.096;12.664;2023-08-06T04:36:52;99123.00;;;14.45;100.00
13732;BME280;6937;56.096;12.664;2023-08-06T04:39:17;99100.28;;;14.48;100.00
13732;BME280;6937;56.096;12.664;2023-08-06T04:41:43;99096.28;;;14.44;100.00
13732;BME280;6937;56.096;12.664;2023-08-06T04:44:08;99082.00;;;14.43;100.00
13732;BME280;6937;56.096;12.664;2023-08-06T04:46:34;99068.41;;;14.45;100.00
13732;BME280;6937;56.096;12.664;2023-08-06T04:48:59;99058.47;;;14.45;100.00
13732;BME280;6937;56.096;12.664;2023-08-06T04:51:24;99053.09;;;14.45;100.00
13732;BME280;6937;56.096;12.664;2023-08-06T04:53:50;99036.13;;;14.45;100.00
13732;BME280;6937;56.096;12.664;2023-08-06T04:56:15;99025.03;;;14.48;100.00
13732;BME280;6937;56.096;12.664;2023-08-06T04:58:41;99001.88;;;14.47;100.00
13732;BME280;6937;56.096;12.664;2023-08-06T05:01:06;99000.84;;;14.48;100.00
13732;BME280;6937;56.096;12.664;2023-08-06T05:03:31;98992.06;;;14.54;100.00
13732;BME280;6937;56.096;12.664;2023-08-06T05:05:57;98975.94;;;14.54;100.00
13732;BME280;6937;56.096;12.664;2023-08-06T05:08:22;98966.31;;;14.60;100.00
13732;BME280;6937;56.096;12.664;2023-08-06T05:10:47;98963.09;;;14.64;100.00
13732;BME280;6937;56.096;12.664;2023-08-06T05:13:13;98965.41;;;14.67;100.00
13732;BME280;6937;56.096;12.664;2023-08-06T05:15:38;98961.19;;;14.73;100.00
13732;BME280;6937;56.096;12.664;2023-08-06T05:18:07;98959.66;;;14.70;100.00
13732;BME280;6937;56.096;12.664;2023-08-06T05:20:36;98947.16;;;14.77;100.00
13732;BME280;6937;56.096;12.664;2023-08-06T05:23:02;98939.75;;;14.79;100.00
13732;BME280;6937;56.096;12.664;2023-08-06T05:25:28;98941.06;;;14.83;100.00
13732;BME280;6937;56.096;12.664;2023-08-06T05:27:53;98941.34;;;14.88;100.00
13732;BME280;6937;56.096;12.664;2023-08-06T05:30:18;98928.84;;;14.95;100.00
13732;BME280;6937;56.096;12.664;2023-08-06T05:32:44;98914.38;;;14.96;100.00
13732;BME280;6937;56.096;12.664;2023-08-06T05:35:09;98908.44;;;15.01;100.00
13732;BME280;6937;56.096;12.664;2023-08-06T05:37:34;98901.13;;;15.10;100.00
13732;BME280;6937;56.096;12.664;2023-08-06T05:40:00;98883.03;;;15.18;100.00
13732;BME280;6937;56.096;12.664;2023-08-06T05:42:26;98870.50;;;15.25;100.00
13732;BME280;6937;56.096;12.664;2023-08-06T05:44:52;98865.19;;;15.32;100.00
13732;BME280;6937;56.096;12.664;2023-08-06T05:47:17;98856.75;;;15.35;100.00
13732;BME280;6937;56.096;12.664;2023-08-06T05:49:42;98851.38;;;15.35;100.00
13732;BME280;6937;56.096;12.664;2023-08-06T05:52:08;98856.56;;;15.36;100.00
13732;BME280;6937;56.096;12.664;2023-08-06T05:54:33;98848.50;;;15.36;100.00
13732;BME280;6937;56.096;12.664;2023-08-06T05:56:58;98843.13;;;15.36;100.00
13732;BME280;6937;56.096;12.664;2023-08-06T05:59:24;98851.25;;;15.43;100.00
13732;BME280;6937;56.096;12.664;2023-08-06T06:01:49;98840.66;;;15.41;100.00
13732;BME280;6937;56.096;12.664;2023-08-06T06:04:14;98846.50;;;15.45;100.00
13732;BME280;6937;56.096;12.664;2023-08-06T06:06:40;98842.81;;;15.46;100.00
13732;BME280;6937;56.096;12.664;2023-08-06T06:09:07;98846.81;;;15.50;100.00
13732;BME280;6937;56.096;12.664;2023-08-06T06:11:32;98841.88;;;15.54;100.00
13732;BME280;6937;56.096;12.664;2023-08-06T06:13:57;98839.66;;;15.57;100.00
13732;BME280;6937;56.096;12.664;2023-08-06T06:16:23;98839.72;;;15.64;100.00
13732;BME280;6937;56.096;12.664;2023-08-06T06:18:48;98839.44;;;15.73;100.00
13732;BME280;6937;56.096;12.664;2023-08-06T06:21:13;98840.72;;;15.77;100.00
13732;BME280;6937;56.096;12.664;2023-08-06T06:23:39;98846.00;;;15.85;100.00
13732;BME280;6937;56.096;12.664;2023-08-06T06:26:04;98857.47;;;15.94;100.00
13732;BME280;6937;56.096;12.664;2023-08-06T06:28:29;98856.09;;;16.05;100.00
13732;BME280;6937;56.096;12.664;2023-08-06T06:31:00;98844.84;;;16.16;100.00
13732;BME280;6937;56.096;12.664;2023-08-06T06:33:26;98862.25;;;16.20;100.00
13732;BME280;6937;56.096;12.664;2023-08-06T06:35:51;98871.28;;;16.27;100.00
13732;BME280;6937;56.096;12.664;2023-08-06T06:38:16;98888.34;;;16.34;100.00
13732;BME280;6937;56.096;12.664;2023-08-06T06:40:42;98895.66;;;16.40;100.00
13732;BME280;6937;56.096;12.664;2023-08-06T06:43:07;98892.44;;;16.51;100.00
13732;BME280;6937;56.096;12.664;2023-08-06T06:45:32;98899.41;;;16.60;100.00
13732;BME280;6937;56.096;12.664;2023-08-06T06:47:58;98929.28;;;16.65;100.00
13732;BME280;6937;56.096;12.664;2023-08-06T06:50:23;98937.03;;;16.68;100.00
13732;BME280;6937;56.096;12.664;2023-08-06T06:52:49;98962.41;;;16.80;100.00
13732;BME280;6937;56.096;12.664;2023-08-06T06:55:14;98967.50;;;16.90;100.00
13732;BME280;6937;56.096;12.664;2023-08-06T06:57:40;98987.31;;;17.04;100.00
13732;BME280;6937;56.096;12.664;2023-08-06T07:00:05;98996.97;;;17.13;100.00
13732;BME280;6937;56.096;12.664;2023-08-06T07:02:31;99014.06;;;17.26;100.00
13732;BME280;6937;56.096;12.664;2023-08-06T07:04:56;99032.25;;;17.39;100.00
13732;BME280;6937;56.096;12.664;2023-08-06T07:07:22;99044.38;;;17.50;100.00
13732;BME280;6937;56.096;12.664;2023-08-06T07:09:47;99083.94;;;17.57;100.00
13732;BME280;6937;56.096;12.664;2023-08-06T07:12:13;99126.16;;;17.58;100.00
13732;BME280;6937;56.096;12.664;2023-08-06T07:14:38;99161.09;;;17.66;100.00
13732;BME280;6937;56.096;12.664;2023-08-06T07:17:04;99180.72;;;17.75;100.00
13732;BME280;6937;56.096;12.664;2023-08-06T07:19:30;99214.47;;;17.85;100.00
13732;BME280;6937;56.096;12.664;2023-08-06T07:21:55;99261.31;;;17.93;100.00
13732;BME280;6937;56.096;12.664;2023-08-06T07:24:21;99299.41;;;17.98;100.00
13732;BME280;6937;56.096;12.664;2023-08-06T07:26:46;99350.84;;;18.04;100.00
13732;BME280;6937;56.096;12.664;2023-08-06T07:29:12;99397.91;;;18.10;100.00
13732;BME280;6937;56.096;12.664;2023-08-06T07:31:37;99437.91;;;18.14;100.00
13732;BME280;6937;56.096;12.664;2023-08-06T07:34:03;99507.06;;;18.23;100.00
13732;BME280;6937;56.096;12.664;2023-08-06T07:36:28;99588.19;;;18.23;100.00
13732;BME280;6937;56.096;12.664;2023-08-06T07:38:54;99683.31;;;18.27;100.00
13732;BME280;6937;56.096;12.664;2023-08-06T07:41:24;99701.31;;;18.34;100.00
13732;BME280;6937;56.096;12.664;2023-08-06T07:43:50;99753.28;;;18.45;100.00
13732;BME280;6937;56.096;12.664;2023-08-06T07:46:15;99818.88;;;18.47;100.00
13732;BME280;6937;56.096;12.664;2023-08-06T07:48:41;99872.63;;;18.50;100.00
13732;BME280;6937;56.096;12.664;2023-08-06T07:51:06;99938.94;;;18.54;100.00
13732;BME280;6937;56.096;12.664;2023-08-06T07:53:32;99959.56;;;18.55;100.00
13732;BME280;6937;56.096;12.664;2023-08-06T07:55:57;99973.03;;;18.63;100.00
13732;BME280;6937;56.096;12.664;2023-08-06T07:58:24;99983.75;;;18.71;100.00
13732;BME280;6937;56.096;12.664;2023-08-06T08:00:50;100002.28;;;18.82;100.00
13732;BME280;6937;56.096;12.664;2023-08-06T08:03:15;100028.44;;;18.90;100.00
13732;BME280;6937;56.096;12.664;2023-08-06T08:05:44;100209.53;;;18.93;100.00
13732;BME280;6937;56.096;12.664;2023-08-06T08:08:10;100089.47;;;19.00;100.00
13732;BME280;6937;56.096;12.664;2023-08-06T08:10:36;100102.94;;;19.08;100.00
13732;BME280;6937;56.096;12.664;2023-08-06T08:13:03;100114.38;;;19.18;100.00
13732;BME280;6937;56.096;12.664;2023-08-06T08:15:30;100125.50;;;19.23;100.00
13732;BME280;6937;56.096;12.664;2023-08-06T08:17:55;100144.28;;;19.25;100.00
13732;BME280;6937;56.096;12.664;2023-08-06T08:20:21;100158.31;;;19.28;100.00
13732;BME280;6937;56.096;12.664;2023-08-06T08:22:47;100157.47;;;19.28;100.00
13732;BME280;6937;56.096;12.664;2023-08-06T08:25:12;100169.94;;;19.37;100.00
13732;BME280;6937;56.096;12.664;2023-08-06T08:27:38;100175.84;;;19.41;100.00
13732;BME280;6937;56.096;12.664;2023-08-06T08:30:04;100184.31;;;19.46;100.00
13732;BME280;6937;56.096;12.664;2023-08-06T08:32:29;100197.66;;;19.47;100.00
13732;BME280;6937;56.096;12.664;2023-08-06T08:34:55;100207.66;;;19.47;100.00
13732;BME280;6937;56.096;12.664;2023-08-06T08:37:20;100222.44;;;19.44;100.00
13732;BME280;6937;56.096;12.664;2023-08-06T08:39:45;100224.13;;;19.45;100.00
13732;BME280;6937;56.096;12.664;2023-08-06T08:42:11;100222.72;;;19.49;100.00
13732;BME280;6937;56.096;12.664;2023-08-06T08:44:36;100214.88;;;19.54;100.00
13732;BME280;6937;56.096;12.664;2023-08-06T08:47:06;100217.22;;;19.57;100.00
13732;BME280;6937;56.096;12.664;2023-08-06T08:49:31;100229.97;;;19.57;100.00
13732;BME280;6937;56.096;12.664;2023-08-06T08:51:59;100226.84;;;19.45;100.00
13732;BME280;6937;56.096;12.664;2023-08-06T08:54:27;100246.47;;;19.39;100.00
13732;BME280;6937;56.096;12.664;2023-08-06T08:56:53;100251.94;;;19.31;100.00
13732;BME280;6937;56.096;12.664;2023-08-06T08:59:20;100256.06;;;19.27;100.00
13732;BME280;6937;56.096;12.664;2023-08-06T09:01:46;100256.88;;;19.27;100.00
13732;BME280;6937;56.096;12.664;2023-08-06T09:04:16;100261.66;;;19.25;100.00
13732;BME280;6937;56.096;12.664;2023-08-06T09:06:41;100257.06;;;19.26;100.00
13732;BME280;6937;56.096;12.664;2023-08-06T09:09:17;100253.19;;;19.20;100.00
13732;BME280;6937;56.096;12.664;2023-08-06T09:11:47;100260.69;;;19.18;100.00
13732;BME280;6937;56.096;12.664;2023-08-06T09:14:14;100244.31;;;19.12;100.00
13732;BME280;6937;56.096;12.664;2023-08-06T09:16:40;100248.38;;;19.08;100.00
13732;BME280;6937;56.096;12.664;2023-08-06T09:19:10;100248.03;;;19.11;100.00
13732;BME280;6937;56.096;12.664;2023-08-06T09:21:42;100246.38;;;19.02;100.00
13732;BME280;6937;56.096;12.664;2023-08-06T09:24:08;100245.88;;;18.98;100.00
13732;BME280;6937;56.096;12.664;2023-08-06T09:26:34;100250.28;;;18.99;100.00
13732;BME280;6937;56.096;12.664;2023-08-06T09:29:01;100250.94;;;19.01;100.00
13732;BME280;6937;56.096;12.664;2023-08-06T09:31:33;100241.94;;;19.09;100.00
13732;BME280;6937;56.096;12.664;2023-08-06T09:33:59;100246.31;;;19.10;100.00
13732;BME280;6937;56.096;12.664;2023-08-06T09:36:27;100239.38;;;19.15;100.00
13732;BME280;6937;56.096;12.664;2023-08-06T09:38:52;100233.75;;;19.17;100.00
13732;BME280;6937;56.096;12.664;2023-08-06T09:41:27;100230.69;;;19.20;100.00
13732;BME280;6937;56.096;12.664;2023-08-06T09:43:53;100234.97;;;19.14;100.00
13732;BME280;6937;56.096;12.664;2023-08-06T09:46:19;100236.69;;;19.07;100.00
13732;BME280;6937;56.096;12.664;2023-08-06T09:48:47;100233.03;;;19.00;100.00
13732;BME280;6937;56.096;12.664;2023-08-06T09:51:14;100237.97;;;18.97;100.00
13732;BME280;6937;56.096;12.664;2023-08-06T09:53:40;100235.72;;;19.00;100.00
13732;BME280;6937;56.096;12.664;2023-08-06T09:56:06;100237.06;;;19.04;100.00
13732;BME280;6937;56.096;12.664;2023-08-06T09:58:32;100232.63;;;19.11;100.00
13732;BME280;6937;56.096;12.664;2023-08-06T10:00:59;100227.84;;;19.13;100.00
13732;BME280;6937;56.096;12.664;2023-08-06T10:03:25;100240.91;;;19.10;100.00
13732;BME280;6937;56.096;12.664;2023-08-06T10:05:50;100242.59;;;19.11;100.00
13732;BME280;6937;56.096;12.664;2023-08-06T10:08:16;100241.59;;;19.12;100.00
13732;BME280;6937;56.096;12.664;2023-08-06T10:10:42;100233.59;;;19.18;100.00
13732;BME280;6937;56.096;12.664;2023-08-06T10:13:09;100229.13;;;19.25;100.00
13732;BME280;6937;56.096;12.664;2023-08-06T10:15:36;100229.13;;;19.25;100.00
13732;BME280;6937;56.096;12.664;2023-08-06T10:18:04;100228.03;;;19.35;100.00
13732;BME280;6937;56.096;12.664;2023-08-06T10:20:35;100225.13;;;19.44;100.00
13732;BME280;6937;56.096;12.664;2023-08-06T10:23:05;100217.31;;;19.49;100.00
13732;BME280;6937;56.096;12.664;2023-08-06T10:25:33;100213.56;;;19.50;100.00
13732;BME280;6937;56.096;12.664;2023-08-06T10:27:59;100211.69;;;19.51;100.00
13732;BME280;6937;56.096;12.664;2023-08-06T10:30:30;100190.53;;;19.46;100.00
13732;BME280;6937;56.096;12.664;2023-08-06T10:33:04;100187.19;;;19.44;100.00
13732;BME280;6937;56.096;12.664;2023-08-06T10:35:36;100177.66;;;19.48;100.00
13732;BME280;6937;56.096;12.664;2023-08-06T10:38:07;100169.66;;;19.55;100.00
13732;BME280;6937;56.096;12.664;2023-08-06T10:40:35;100161.22;;;19.50;100.00
13732;BME280;6937;56.096;12.664;2023-08-06T10:43:04;100129.44;;;19.44;100.00
13732;BME280;6937;56.096;12.664;2023-08-06T10:45:34;100116.13;;;19.34;100.00
13732;BME280;6937;56.096;12.664;2023-08-06T10:48:00;100111.72;;;19.33;100.00
13732;BME280;6937;56.096;12.664;2023-08-06T10:50:26;100093.59;;;19.34;100.00
13732;BME280;6937;56.096;12.664;2023-08-06T10:52:51;100067.97;;;19.36;100.00
13732;BME280;6937;56.096;12.664;2023-08-06T10:55:28;100049.75;;;19.30;100.00
13732;BME280;6937;56.096;12.664;2023-08-06T10:57:54;100038.94;;;19.30;100.00
13732;BME280;6937;56.096;12.664;2023-08-06T11:00:21;100014.72;;;19.28;100.00
13732;BME280;6937;56.096;12.664;2023-08-06T11:02:48;100009.75;;;19.32;100.00
13732;BME280;6937;56.096;12.664;2023-08-06T11:05:14;99991.81;;;19.31;100.00
13732;BME280;6937;56.096;12.664;2023-08-06T11:07:40;99985.66;;;19.22;100.00
13732;BME280;6937;56.096;12.664;2023-08-06T11:10:10;99970.97;;;19.17;100.00
13732;BME280;6937;56.096;12.664;2023-08-06T11:12:36;99978.00;;;19.11;100.00
13732;BME280;6937;56.096;12.664;2023-08-06T11:15:02;99970.78;;;19.04;100.00
13732;BME280;6937;56.096;12.664;2023-08-06T11:17:30;99967.59;;;19.00;100.00
13732;BME280;6937;56.096;12.664;2023-08-06T11:19:59;99958.72;;;18.92;100.00
13732;BME280;6937;56.096;12.664;2023-08-06T11:22:24;99953.78;;;18.95;100.00
13732;BME280;6937;56.096;12.664;2023-08-06T11:24:50;99951.59;;;18.91;100.00
13732;BME280;6937;56.096;12.664;2023-08-06T11:27:16;99950.50;;;18.85;100.00
13732;BME280;6937;56.096;12.664;2023-08-06T11:29:43;99940.59;;;18.77;100.00
13732;BME280;6937;56.096;12.664;2023-08-06T11:32:10;99934.88;;;18.72;100.00
13732;BME280;6937;56.096;12.664;2023-08-06T11:34:36;99940.34;;;18.64;100.00
13732;BME280;6937;56.096;12.664;2023-08-06T11:37:05;99927.19;;;18.61;100.00
13732;BME280;6937;56.096;12.664;2023-08-06T11:39:34;99928.88;;;18.62;100.00
13732;BME280;6937;56.096;12.664;2023-08-06T11:42:02;99921.03;;;18.67;100.00
13732;BME280;6937;56.096;12.664;2023-08-06T11:44:30;99910.88;;;18.69;100.00
13732;BME280;6937;56.096;12.664;2023-08-06T11:46:57;99925.78;;;18.65;100.00
13732;BME280;6937;56.096;12.664;2023-08-06T11:49:43;99911.25;;;18.66;100.00
13732;BME280;6937;56.096;12.664;2023-08-06T11:54:37;99907.41;;;18.75;100.00
13732;BME280;6937;56.096;12.664;2023-08-06T11:57:04;99901.38;;;18.73;100.00
13732;BME280;6937;56.096;12.664;2023-08-06T11:59:30;99892.31;;;18.66;100.00
13732;BME280;6937;56.096;12.664;2023-08-06T12:01:55;99877.03;;;18.51;100.00
13732;BME280;6937;56.096;12.664;2023-08-06T12:04:20;99855.44;;;18.43;100.00
13732;BME280;6937;56.096;12.664;2023-08-06T12:06:46;99833.97;;;18.41;100.00
13732;BME280;6937;56.096;12.664;2023-08-06T12:09:11;99805.19;;;18.48;100.00
13732;BME280;6937;56.096;12.664;2023-08-06T12:11:36;99786.25;;;18.48;100.00
13732;BME280;6937;56.096;12.664;2023-08-06T12:14:02;99767.00;;;18.43;100.00
13732;BME280;6937;56.096;12.664;2023-08-06T12:16:28;99751.25;;;18.47;100.00
13732;BME280;6937;56.096;12.664;2023-08-06T12:18:53;99739.56;;;18.46;100.00
13732;BME280;6937;56.096;12.664;2023-08-06T12:21:18;99727.44;;;18.42;100.00
13732;BME280;6937;56.096;12.664;2023-08-06T12:23:44;99707.28;;;18.45;100.00
13732;BME280;6937;56.096;12.664;2023-08-06T12:26:09;99686.22;;;18.40;100.00
13732;BME280;6937;56.096;12.664;2023-08-06T12:28:34;99668.84;;;18.34;100.00
13732;BME280;6937;56.096;12.664;2023-08-06T12:31:00;99657.97;;;18.28;100.00
13732;BME280;6937;56.096;12.664;2023-08-06T12:33:25;99648.91;;;18.21;100.00
13732;BME280;6937;56.096;12.664;2023-08-06T12:35:50;99639.50;;;18.17;100.00
13732;BME280;6937;56.096;12.664;2023-08-06T12:38:19;99626.06;;;18.09;100.00
13732;BME280;6937;56.096;12.664;2023-08-06T12:40:44;99615.31;;;18.15;100.00
13732;BME280;6937;56.096;12.664;2023-08-06T12:43:10;99596.13;;;18.25;100.00
13732;BME280;6937;56.096;12.664;2023-08-06T12:45:35;99574.09;;;18.28;100.00
13732;BME280;6937;56.096;12.664;2023-08-06T12:48:00;99554.28;;;18.06;100.00
13732;BME280;6937;56.096;12.664;2023-08-06T12:50:26;99545.25;;;17.99;100.00
13732;BME280;6937;56.096;12.664;2023-08-06T12:52:51;99525.19;;;17.94;100.00